sensor_id;sensor_type;location;lat;lon;timestamp;pressure;altitude;pressure_sealevel;temperature;humidity
37848;BME280;23688;33.130;-117.188;2024-02-23T00:01:59;99950.03;;;16.31;100.00
37848;BME280;23688;33.130;-117.188;2024-02-23T00:04:26;99950.84;;;16.28;100.00
37848;BME280;23688;33.130;-117.188;2024-02-23T00:06:52;99951.97;;;16.38;100.00
37848;BME280;23688;33.130;-117.188;2024-02-23T00:09:18;99962.81;;;16.17;100.00
37848;BME280;23688;33.130;-117.188;2024-02-23T00:11:44;99963.69;;;16.17;100.00
37848;BME280;23688;33.130;-117.188;2024-02-23T00:14:12;99949.97;;;15.94;100.00
37848;BME280;23688;33.130;-117.188;2024-02-23T00:16:39;99945.75;;;15.69;100.00
37848;BME280;23688;33.130;-117.188;2024-02-23T00:19:08;99949.00;;;15.60;100.00
37848;BME280;23688;33.130;-117.188;2024-02-23T00:21:37;99946.00;;;15.47;100.00
37848;BME280;23688;33.130;-117.188;2024-02-23T00:24:08;99949.63;;;15.52;100.00
37848;BME280;23688;33.130;-117.188;2024-02-23T00:26:34;99946.50;;;15.65;100.00
37848;BME280;23688;33.130;-117.188;2024-02-23T00:29:03;99940.38;;;15.65;100.00
37848;BME280;23688;33.130;-117.188;2024-02-23T00:31:29;99951.25;;;15.48;100.00
37848;BME280;23688;33.130;-117.188;2024-02-23T00:33:58;99944.41;;;15.52;100.00
37848;BME280;23688;33.130;-117.188;2024-02-23T00:36:24;99957.28;;;15.74;100.00
37848;BME280;23688;33.130;-117.188;2024-02-23T00:38:52;99957.31;;;15.76;100.00
37848;BME280;23688;33.130;-117.188;2024-02-23T00:41:18;99951.66;;;15.62;99.44
37848;BME280;23688;33.130;-117.188;2024-02-23T00:43:45;99946.81;;;15.44;100.00
37848;BME280;23688;33.130;-117.188;2024-02-23T00:46:13;99954.19;;;15.29;100.00
37848;BME280;23688;33.130;-117.188;2024-02-23T00:48:40;99944.91;;;15.10;98.98
37848;BME280;23688;33.130;-117.188;2024-02-23T00:51:06;99958.38;;;15.22;99.35
37848;BME280;23688;33.130;-117.188;2024-02-23T00:53:34;99956.34;;;15.13;99.00
37848;BME280;23688;33.130;-117.188;2024-02-23T00:56:01;99957.06;;;15.08;99.00
37848;BME280;23688;33.130;-117.188;2024-02-23T00:58:27;99959.31;;;14.97;99.20
37848;BME280;23688;33.130;-117.188;2024-02-23T01:00:54;99953.84;;;14.89;100.00
37848;BME280;23688;33.130;-117.188;2024-02-23T01:03:21;99968.09;;;14.99;99.18
37848;BME280;23688;33.130;-117.188;2024-02-23T01:05:47;99977.25;;;14.85;96.72
37848;BME280;23688;33.130;-117.188;2024-02-23T01:08:14;99976.91;;;14.74;95.17
37848;BME280;23688;33.130;-117.188;2024-02-23T01:10:40;99983.31;;;14.84;95.95
37848;BME280;23688;33.130;-117.188;2024-02-23T01:13:07;99975.88;;;14.69;94.73
37848;BME280;23688;33.130;-117.188;2024-02-23T01:15:34;99980.94;;;14.91;94.79
37848;BME280;23688;33.130;-117.188;2024-02-23T01:18:00;99983.66;;;14.94;96.07
37848;BME280;23688;33.130;-117.188;2024-02-23T01:20:29;99970.56;;;15.22;97.05
37848;BME280;23688;33.130;-117.188;2024-02-23T01:22:55;99970.28;;;15.43;98.01
37848;BME280;23688;33.130;-117.188;2024-02-23T01:25:21;99973.00;;;15.46;97.50
37848;BME280;23688;33.130;-117.188;2024-02-23T01:27:48;99979.34;;;15.54;97.87
37848;BME280;23688;33.130;-117.188;2024-02-23T01:30:14;99974.25;;;15.58;98.52
37848;BME280;23688;33.130;-117.188;2024-02-23T01:32:41;99981.13;;;15.55;97.89
37848;BME280;23688;33.130;-117.188;2024-02-23T01:35:08;99968.75;;;15.49;98.00
37848;BME280;23688;33.130;-117.188;2024-02-23T01:37:34;99983.72;;;15.55;97.88
37848;BME280;23688;33.130;-117.188;2024-02-23T01:40:07;99984.41;;;15.48;97.87
37848;BME280;23688;33.130;-117.188;2024-02-23T01:42:33;99972.81;;;15.39;97.82
37848;BME280;23688;33.130;-117.188;2024-02-23T01:44:59;99970.13;;;15.36;98.04
37848;BME280;23688;33.130;-117.188;2024-02-23T01:47:28;99988.38;;;15.35;97.86
37848;BME280;23688;33.130;-117.188;2024-02-23T01:49:57;99987.28;;;15.27;97.71
37848;BME280;23688;33.130;-117.188;2024-02-23T01:52:23;99981.63;;;15.13;97.22
37848;BME280;23688;33.130;-117.188;2024-02-23T01:54:51;99989.56;;;15.16;96.06
37848;BME280;23688;33.130;-117.188;2024-02-23T01:57:17;99986.75;;;15.10;95.65
37848;BME280;23688;33.130;-117.188;2024-02-23T01:59:43;99992.06;;;15.13;95.38
37848;BME280;23688;33.130;-117.188;2024-02-23T02:02:10;99986.56;;;15.04;94.49
37848;BME280;23688;33.130;-117.188;2024-02-23T02:04:39;99989.81;;;14.96;93.58
37848;BME280;23688;33.130;-117.188;2024-02-23T02:07:05;99985.19;;;14.88;93.42
37848;BME280;23688;33.130;-117.188;2024-02-23T02:09:32;99991.41;;;14.91;93.85
37848;BME280;23688;33.130;-117.188;2024-02-23T02:11:58;99993.06;;;14.89;94.41
37848;BME280;23688;33.130;-117.188;2024-02-23T02:14:25;99999.06;;;14.85;95.05
37848;BME280;23688;33.130;-117.188;2024-02-23T02:16:51;100005.03;;;14.81;95.04
37848;BME280;23688;33.130;-117.188;2024-02-23T02:19:18;99999.47;;;14.70;95.14
37848;BME280;23688;33.130;-117.188;2024-02-23T02:21:44;100003.78;;;14.70;94.47
37848;BME280;23688;33.130;-117.188;2024-02-23T02:24:11;100000.81;;;14.59;94.84
37848;BME280;23688;33.130;-117.188;2024-02-23T02:26:37;100010.22;;;14.54;95.06
37848;BME280;23688;33.130;-117.188;2024-02-23T02:29:03;100011.72;;;14.47;95.30
37848;BME280;23688;33.130;-117.188;2024-02-23T02:31:30;100026.34;;;14.42;95.59
37848;BME280;23688;33.130;-117.188;2024-02-23T02:34:03;100016.41;;;14.32;96.27
37848;BME280;23688;33.130;-117.188;2024-02-23T02:36:30;100024.16;;;14.29;96.72
37848;BME280;23688;33.130;-117.188;2024-02-23T02:38:56;100027.38;;;14.22;97.75
37848;BME280;23688;33.130;-117.188;2024-02-23T02:41:24;100040.22;;;14.16;98.59
37848;BME280;23688;33.130;-117.188;2024-02-23T02:43:54;100039.88;;;14.06;99.26
37848;BME280;23688;33.130;-117.188;2024-02-23T02:46:20;100047.44;;;13.99;100.00
37848;BME280;23688;33.130;-117.188;2024-02-23T02:48:47;100033.84;;;13.83;100.00
37848;BME280;23688;33.130;-117.188;2024-02-23T02:51:14;100043.69;;;13.92;100.00
37848;BME280;23688;33.130;-117.188;2024-02-23T02:53:40;100053.97;;;13.87;100.00
37848;BME280;23688;33.130;-117.188;2024-02-23T02:56:07;100055.53;;;13.82;100.00
37848;BME280;23688;33.130;-117.188;2024-02-23T02:58:33;100044.78;;;13.73;100.00
37848;BME280;23688;33.130;-117.188;2024-02-23T03:01:00;100050.91;;;13.75;100.00
37848;BME280;23688;33.130;-117.188;2024-02-23T03:03:26;100043.75;;;13.69;100.00
37848;BME280;23688;33.130;-117.188;2024-02-23T03:05:52;100040.09;;;13.64;100.00
37848;BME280;23688;33.130;-117.188;2024-02-23T03:08:19;100057.56;;;13.67;100.00
37848;BME280;23688;33.130;-117.188;2024-02-23T03:10:45;100054.06;;;13.66;100.00
37848;BME280;23688;33.130;-117.188;2024-02-23T03:13:11;100061.06;;;13.67;100.00
37848;BME280;23688;33.130;-117.188;2024-02-23T03:15:38;100060.94;;;13.64;100.00
37848;BME280;23688;33.130;-117.188;2024-02-23T03:18:04;100061.06;;;13.67;100.00
37848;BME280;23688;33.130;-117.188;2024-02-23T03:20:31;100046.84;;;13.59;100.00
37848;BME280;23688;33.130;-117.188;2024-02-23T03:22:57;100057.00;;;13.52;100.00
37848;BME280;23688;33.130;-117.188;2024-02-23T03:25:24;100071.88;;;13.54;100.00
37848;BME280;23688;33.130;-117.188;2024-02-23T03:27:50;100054.97;;;13.44;100.00
37848;BME280;23688;33.130;-117.188;2024-02-23T03:30:17;100064.28;;;13.38;100.00
37848;BME280;23688;33.130;-117.188;2024-02-23T03:32:43;100080.03;;;13.41;100.00
37848;BME280;23688;33.130;-117.188;2024-02-23T03:35:09;100072.22;;;13.41;100.00
37848;BME280;23688;33.130;-117.188;2024-02-23T03:37:36;100078.44;;;13.44;100.00
37848;BME280;23688;33.130;-117.188;2024-02-23T03:40:02;100084.63;;;13.46;100.00
37848;BME280;23688;33.130;-117.188;2024-02-23T03:42:30;100061.59;;;13.36;100.00
37848;BME280;23688;33.130;-117.188;2024-02-23T03:44:56;100082.78;;;13.44;100.00
37848;BME280;23688;33.130;-117.188;2024-02-23T03:47:23;100081.84;;;13.42;100.00
37848;BME280;23688;33.130;-117.188;2024-02-23T03:49:49;100077.44;;;13.41;100.00
37848;BME280;23688;33.130;-117.188;2024-02-23T03:52:17;100078.28;;;13.40;100.00
37848;BME280;23688;33.130;-117.188;2024-02-23T03:54:44;100067.53;;;13.32;100.00
37848;BME280;23688;33.130;-117.188;2024-02-23T03:57:10;100070.06;;;13.31;100.00
37848;BME280;23688;33.130;-117.188;2024-02-23T03:59:36;100082.34;;;13.33;100.00
37848;BME280;23688;33.130;-117.188;2024-02-23T04:02:05;100076.94;;;13.28;100.00
37848;BME280;23688;33.130;-117.188;2024-02-23T04:04:31;100076.72;;;13.24;100.00
37848;BME280;23688;33.130;-117.188;2024-02-23T04:06:57;100087.91;;;13.21;100.00
37848;BME280;23688;33.130;-117.188;2024-02-23T04:09:24;100073.81;;;13.16;100.00
37848;BME280;23688;33.130;-117.188;2024-02-23T04:11:50;100087.69;;;13.15;100.00
37848;BME280;23688;33.130;-117.188;2024-02-23T04:14:19;100075.13;;;13.05;100.00
37848;BME280;23688;33.130;-117.188;2024-02-23T04:16:45;100083.94;;;13.09;100.00
37848;BME280;23688;33.130;-117.188;2024-02-23T04:19:11;100082.38;;;13.12;100.00
37848;BME280;23688;33.130;-117.188;2024-02-23T04:21:37;100084.63;;;13.04;100.00
37848;BME280;23688;33.130;-117.188;2024-02-23T04:24:04;100094.31;;;13.07;100.00
37848;BME280;23688;33.130;-117.188;2024-02-23T04:26:32;100094.38;;;13.09;100.00
37848;BME280;23688;33.130;-117.188;2024-02-23T04:29:01;100085.66;;;13.08;100.00
37848;BME280;23688;33.130;-117.188;2024-02-23T04:31:27;100075.81;;;13.01;100.00
37848;BME280;23688;33.130;-117.188;2024-02-23T04:33:53;100088.34;;;13.10;100.00
37848;BME280;23688;33.130;-117.188;2024-02-23T04:36:20;100090.75;;;13.05;100.00
37848;BME280;23688;33.130;-117.188;2024-02-23T04:38:49;100087.31;;;13.06;100.00
37848;BME280;23688;33.130;-117.188;2024-02-23T04:41:19;100110.28;;;13.15;100.00
37848;BME280;23688;33.130;-117.188;2024-02-23T04:43:46;100103.16;;;13.11;100.00
37848;BME280;23688;33.130;-117.188;2024-02-23T04:46:15;100109.25;;;13.11;100.00
37848;BME280;23688;33.130;-117.188;2024-02-23T04:48:42;100118.72;;;13.09;100.00
37848;BME280;23688;33.130;-117.188;2024-02-23T04:51:08;100125.72;;;13.10;100.00
37848;BME280;23688;33.130;-117.188;2024-02-23T04:53:38;100123.13;;;13.10;100.00
37848;BME280;23688;33.130;-117.188;2024-02-23T04:56:07;100114.22;;;13.05;100.00
37848;BME280;23688;33.130;-117.188;2024-02-23T04:58:33;100117.78;;;13.07;100.00
37848;BME280;23688;33.130;-117.188;2024-02-23T05:01:00;100112.50;;;13.05;100.00
37848;BME280;23688;33.130;-117.188;2024-02-23T05:03:26;100129.09;;;13.07;100.00
37848;BME280;23688;33.130;-117.188;2024-02-23T05:05:53;100140.16;;;13.23;100.00
37848;BME280;23688;33.130;-117.188;2024-02-23T05:08:22;100140.25;;;13.26;100.00
37848;BME280;23688;33.130;-117.188;2024-02-23T05:10:50;100135.16;;;13.27;100.00
37848;BME280;23688;33.130;-117.188;2024-02-23T05:13:17;100121.13;;;13.25;100.00
37848;BME280;23688;33.130;-117.188;2024-02-23T05:15:43;100119.50;;;13.27;100.00
37848;BME280;23688;33.130;-117.188;2024-02-23T05:18:09;100116.44;;;13.38;100.00
37848;BME280;23688;33.130;-117.188;2024-02-23T05:20:36;100119.16;;;13.41;100.00
37848;BME280;23688;33.130;-117.188;2024-02-23T05:23:02;100136.91;;;13.49;100.00
37848;BME280;23688;33.130;-117.188;2024-02-23T05:25:28;100131.19;;;13.58;100.00
37848;BME280;23688;33.130;-117.188;2024-02-23T05:27:55;100128.78;;;13.64;100.00
37848;BME280;23688;33.130;-117.188;2024-02-23T05:30:28;100128.88;;;13.66;100.00
37848;BME280;23688;33.130;-117.188;2024-02-23T05:32:57;100134.09;;;13.66;100.00
37848;BME280;23688;33.130;-117.188;2024-02-23T05:35:24;100131.34;;;13.63;100.00
37848;BME280;23688;33.130;-117.188;2024-02-23T05:37:54;100130.25;;;13.58;100.00
37848;BME280;23688;33.130;-117.188;2024-02-23T05:40:21;100118.16;;;13.60;100.00
37848;BME280;23688;33.130;-117.188;2024-02-23T05:42:47;100124.63;;;13.69;100.00
37848;BME280;23688;33.130;-117.188;2024-02-23T05:45:14;100118.28;;;13.63;100.00
37848;BME280;23688;33.130;-117.188;2024-02-23T05:47:41;100113.03;;;13.61;100.00
37848;BME280;23688;33.130;-117.188;2024-02-23T05:50:10;100127.03;;;13.63;100.00
37848;BME280;23688;33.130;-117.188;2024-02-23T05:52:39;100120.84;;;13.61;100.00
37848;BME280;23688;33.130;-117.188;2024-02-23T05:55:08;100129.16;;;13.51;100.00
37848;BME280;23688;33.130;-117.188;2024-02-23T05:57:34;100123.59;;;13.43;100.00
37848;BME280;23688;33.130;-117.188;2024-02-23T06:00:01;100097.81;;;13.28;100.00
37848;BME280;23688;33.130;-117.188;2024-02-23T06:02:27;100129.28;;;13.33;100.00
37848;BME280;23688;33.130;-117.188;2024-02-23T06:04:53;100119.50;;;13.27;100.00
37848;BME280;23688;33.130;-117.188;2024-02-23T06:07:20;100113.19;;;13.22;100.00
37848;BME280;23688;33.130;-117.188;2024-02-23T06:09:52;100111.38;;;13.21;100.00
37848;BME280;23688;33.130;-117.188;2024-02-23T06:12:19;100109.31;;;13.13;100.00
37848;BME280;23688;33.130;-117.188;2024-02-23T06:14:45;100103.84;;;13.06;100.00
37848;BME280;23688;33.130;-117.188;2024-02-23T06:17:11;100097.50;;;13.00;100.00
37848;BME280;23688;33.130;-117.188;2024-02-23T06:19:37;100099.97;;;12.97;100.00
37848;BME280;23688;33.130;-117.188;2024-02-23T06:22:04;100091.25;;;12.96;100.00
37848;BME280;23688;33.130;-117.188;2024-02-23T06:24:30;100091.91;;;12.91;100.00
37848;BME280;23688;33.130;-117.188;2024-02-23T06:26:57;100095.19;;;12.87;100.00
37848;BME280;23688;33.130;-117.188;2024-02-23T06:29:24;100088.06;;;12.82;100.00
37848;BME280;23688;33.130;-117.188;2024-02-23T06:31:50;100087.16;;;12.80;100.00
37848;BME280;23688;33.130;-117.188;2024-02-23T06:34:16;100078.38;;;12.78;100.00
37848;BME280;23688;33.130;-117.188;2024-02-23T06:36:42;100087.00;;;12.77;100.00
37848;BME280;23688;33.130;-117.188;2024-02-23T06:39:09;100087.91;;;12.78;100.00
37848;BME280;23688;33.130;-117.188;2024-02-23T06:41:39;100100.84;;;12.76;100.00
37848;BME280;23688;33.130;-117.188;2024-02-23T06:44:05;100087.75;;;12.75;100.00
37848;BME280;23688;33.130;-117.188;2024-02-23T06:46:32;100078.97;;;12.73;100.00
37848;BME280;23688;33.130;-117.188;2024-02-23T06:48:58;100071.31;;;12.76;100.00
37848;BME280;23688;33.130;-117.188;2024-02-23T06:51:24;100066.72;;;12.70;100.00
37848;BME280;23688;33.130;-117.188;2024-02-23T06:53:51;100068.84;;;12.79;100.00
37848;BME280;23688;33.130;-117.188;2024-02-23T06:56:17;100059.25;;;12.78;100.00
37848;BME280;23688;33.130;-117.188;2024-02-23T06:58:43;100063.53;;;12.77;100.00
37848;BME280;23688;33.130;-117.188;2024-02-23T07:01:10;100062.66;;;12.77;100.00
37848;BME280;23688;33.130;-117.188;2024-02-23T07:03:38;100057.41;;;12.75;100.00
37848;BME280;23688;33.130;-117.188;2024-02-23T07:06:06;100058.97;;;12.72;100.00
37848;BME280;23688;33.130;-117.188;2024-02-23T07:08:35;100057.41;;;12.75;100.00
37848;BME280;23688;33.130;-117.188;2024-02-23T07:11:02;100053.88;;;12.75;100.00
37848;BME280;23688;33.130;-117.188;2024-02-23T07:13:29;100051.16;;;12.72;100.00
37848;BME280;23688;33.130;-117.188;2024-02-23T07:15:55;100037.56;;;12.58;100.00
37848;BME280;23688;33.130;-117.188;2024-02-23T07:18:22;100051.81;;;12.66;100.00
37848;BME280;23688;33.130;-117.188;2024-02-23T07:20:49;100049.03;;;12.63;100.00
37848;BME280;23688;33.130;-117.188;2024-02-23T07:23:16;100025.16;;;12.52;100.00
37848;BME280;23688;33.130;-117.188;2024-02-23T07:25:42;100047.16;;;12.59;100.00
37848;BME280;23688;33.130;-117.188;2024-02-23T07:28:09;100034.81;;;12.55;100.00
37848;BME280;23688;33.130;-117.188;2024-02-23T07:30:36;100030.38;;;12.52;100.00
37848;BME280;23688;33.130;-117.188;2024-02-23T07:33:03;100031.25;;;12.53;100.00
37848;BME280;23688;33.130;-117.188;2024-02-23T07:35:30;100017.16;;;12.48;100.00
37848;BME280;23688;33.130;-117.188;2024-02-23T07:37:56;100032.91;;;12.51;100.00
37848;BME280;23688;33.130;-117.188;2024-02-23T07:40:23;100017.84;;;12.43;100.00
37848;BME280;23688;33.130;-117.188;2024-02-23T07:42:50;100020.66;;;12.48;100.00
37848;BME280;23688;33.130;-117.188;2024-02-23T07:45:16;100008.16;;;12.39;100.00
37848;BME280;23688;33.130;-117.188;2024-02-23T07:47:42;100013.56;;;12.44;100.00
37848;BME280;23688;33.130;-117.188;2024-02-23T07:50:10;100003.13;;;12.44;100.00
37848;BME280;23688;33.130;-117.188;2024-02-23T07:52:36;99988.84;;;12.34;100.00
37848;BME280;23688;33.130;-117.188;2024-02-23T07:55:04;99995.31;;;12.44;100.00
37848;BME280;23688;33.130;-117.188;2024-02-23T07:57:31;99988.47;;;12.46;100.00
37848;BME280;23688;33.130;-117.188;2024-02-23T07:59:57;99977.03;;;12.42;100.00
37848;BME280;23688;33.130;-117.188;2024-02-23T08:02:24;99977.03;;;12.42;100.00
37848;BME280;23688;33.130;-117.188;2024-02-23T08:04:50;99973.56;;;12.43;100.00
37848;BME280;23688;33.130;-117.188;2024-02-23T08:07:17;99962.94;;;12.37;100.00
37848;BME280;23688;33.130;-117.188;2024-02-23T08:09:44;99962.22;;;12.41;100.00
37848;BME280;23688;33.130;-117.188;2024-02-23T08:12:10;99949.97;;;12.39;100.00
37848;BME280;23688;33.130;-117.188;2024-02-23T08:14:39;99937.56;;;12.33;100.00
37848;BME280;23688;33.130;-117.188;2024-02-23T08:17:05;99942.09;;;12.37;100.00
37848;BME280;23688;33.130;-117.188;2024-02-23T08:19:32;99933.31;;;12.35;100.00
37848;BME280;23688;33.130;-117.188;2024-02-23T08:21:58;99930.53;;;12.31;100.00
37848;BME280;23688;33.130;-117.188;2024-02-23T08:24:24;99924.19;;;12.24;100.00
37848;BME280;23688;33.130;-117.188;2024-02-23T08:26:52;99938.16;;;12.26;100.00
37848;BME280;23688;33.130;-117.188;2024-02-23T08:29:19;99931.06;;;12.22;100.00
37848;BME280;23688;33.130;-117.188;2024-02-23T08:31:46;99926.72;;;12.23;100.00
37848;BME280;23688;33.130;-117.188;2024-02-23T08:34:12;99930.09;;;12.20;100.00
37848;BME280;23688;33.130;-117.188;2024-02-23T08:36:38;99915.13;;;12.14;100.00
37848;BME280;23688;33.130;-117.188;2024-02-23T08:39:05;99924.56;;;12.12;100.00
37848;BME280;23688;33.130;-117.188;2024-02-23T08:41:31;99917.53;;;12.10;100.00
37848;BME280;23688;33.130;-117.188;2024-02-23T08:43:57;99898.84;;;11.99;100.00
37848;BME280;23688;33.130;-117.188;2024-02-23T08:46:23;99918.28;;;12.07;100.00
37848;BME280;23688;33.130;-117.188;2024-02-23T08:48:50;99913.97;;;12.08;100.00
37848;BME280;23688;33.130;-117.188;2024-02-23T08:51:16;99906.72;;;12.01;100.00
37848;BME280;23688;33.130;-117.188;2024-02-23T08:53:43;99911.72;;;11.96;100.00
37848;BME280;23688;33.130;-117.188;2024-02-23T08:56:11;99890.66;;;11.90;100.00
37848;BME280;23688;33.130;-117.188;2024-02-23T08:58:38;99890.53;;;11.87;100.00
37848;BME280;23688;33.130;-117.188;2024-02-23T09:01:04;99887.75;;;11.84;100.00
37848;BME280;23688;33.130;-117.188;2024-02-23T09:03:30;99877.25;;;11.81;100.00
37848;BME280;23688;33.130;-117.188;2024-02-23T09:05:57;99884.22;;;11.82;100.00
37848;BME280;23688;33.130;-117.188;2024-02-23T09:08:24;99877.84;;;11.75;100.00
37848;BME280;23688;33.130;-117.188;2024-02-23T09:10:50;99875.81;;;11.68;100.00
37848;BME280;23688;33.130;-117.188;2024-02-23T09:13:16;99884.00;;;11.77;100.00
37848;BME280;23688;33.130;-117.188;2024-02-23T09:15:42;99879.53;;;11.73;100.00
37848;BME280;23688;33.130;-117.188;2024-02-23T09:18:09;99883.81;;;11.72;100.00
37848;BME280;23688;33.130;-117.188;2024-02-23T09:20:35;99881.09;;;11.69;100.00
37848;BME280;23688;33.130;-117.188;2024-02-23T09:23:02;99869.53;;;11.63;100.00
37848;BME280;23688;33.130;-117.188;2024-02-23T09:25:31;99873.97;;;11.65;100.00
37848;BME280;23688;33.130;-117.188;2024-02-23T09:27:58;99873.75;;;11.61;100.00
37848;BME280;23688;33.130;-117.188;2024-02-23T09:30:24;99872.06;;;11.61;100.00
37848;BME280;23688;33.130;-117.188;2024-02-23T09:32:50;99867.63;;;11.59;100.00
37848;BME280;23688;33.130;-117.188;2024-02-23T09:35:17;99849.69;;;11.45;100.00
37848;BME280;23688;33.130;-117.188;2024-02-23T09:37:43;99853.34;;;11.49;100.00
37848;BME280;23688;33.130;-117.188;2024-02-23T09:40:10;99857.72;;;11.50;100.00
37848;BME280;23688;33.130;-117.188;2024-02-23T09:42:37;99849.03;;;11.49;100.00
37848;BME280;23688;33.130;-117.188;2024-02-23T09:45:05;99849.69;;;11.45;100.00
37848;BME280;23688;33.130;-117.188;2024-02-23T09:47:31;99831.38;;;11.42;100.00
37848;BME280;23688;33.130;-117.188;2024-02-23T09:50:01;99845.47;;;11.47;100.00
37848;BME280;23688;33.130;-117.188;2024-02-23T09:52:29;99837.34;;;11.40;100.00
37848;BME280;23688;33.130;-117.188;2024-02-23T09:54:57;99855.25;;;11.33;100.00
37848;BME280;23688;33.130;-117.188;2024-02-23T09:57:24;99846.38;;;11.28;100.00
37848;BME280;23688;33.130;-117.188;2024-02-23T09:59:50;99838.72;;;11.31;100.00
37848;BME280;23688;33.130;-117.188;2024-02-23T10:02:17;99845.94;;;11.39;100.00
37848;BME280;23688;33.130;-117.188;2024-02-23T10:04:44;99842.34;;;11.35;100.00
37848;BME280;23688;33.130;-117.188;2024-02-23T10:07:13;99836.16;;;11.33;100.00
37848;BME280;23688;33.130;-117.188;2024-02-23T10:09:40;99833.56;;;11.33;100.00
37848;BME280;23688;33.130;-117.188;2024-02-23T10:12:07;99826.44;;;11.29;100.00
37848;BME280;23688;33.130;-117.188;2024-02-23T10:14:33;99831.06;;;11.34;100.00
37848;BME280;23688;33.130;-117.188;2024-02-23T10:16:59;99818.94;;;11.35;100.00
37848;BME280;23688;33.130;-117.188;2024-02-23T10:19:27;99816.22;;;11.32;100.00
37848;BME280;23688;33.130;-117.188;2024-02-23T10:21:56;99816.34;;;11.35;100.00
37848;BME280;23688;33.130;-117.188;2024-02-23T10:24:25;99824.91;;;11.32;100.00
37848;BME280;23688;33.130;-117.188;2024-02-23T10:26:52;99813.28;;;11.24;100.00
37848;BME280;23688;33.130;-117.188;2024-02-23T10:29:18;99822.09;;;11.28;100.00
37848;BME280;23688;33.130;-117.188;2024-02-23T10:31:47;99808.69;;;11.19;100.00
37848;BME280;23688;33.130;-117.188;2024-02-23T10:34:19;99819.25;;;11.22;100.00
37848;BME280;23688;33.130;-117.188;2024-02-23T10:36:46;99792.75;;;11.11;100.00
37848;BME280;23688;33.130;-117.188;2024-02-23T10:39:17;99817.31;;;11.18;100.00
37848;BME280;23688;33.130;-117.188;2024-02-23T10:41:56;99805.44;;;11.03;100.00
37848;BME280;23688;33.130;-117.188;2024-02-23T10:44:24;99809.88;;;11.06;100.00
37848;BME280;23688;33.130;-117.188;2024-02-23T10:46:53;99800.16;;;11.02;100.00
37848;BME280;23688;33.130;-117.188;2024-02-23T10:49:23;99801.06;;;11.02;100.00
37848;BME280;23688;33.130;-117.188;2024-02-23T10:51:53;99799.34;;;11.03;100.00
37848;BME280;23688;33.130;-117.188;2024-02-23T10:54:20;99800.78;;;10.96;100.00
37848;BME280;23688;33.130;-117.188;2024-02-23T10:56:49;99800.78;;;10.96;100.00
37848;BME280;23688;33.130;-117.188;2024-02-23T10:59:16;99805.84;;;10.93;100.00
37848;BME280;23688;33.130;-117.188;2024-02-23T11:01:54;99801.41;;;10.90;100.00
37848;BME280;23688;33.130;-117.188;2024-02-23T11:04:27;99805.97;;;10.96;100.00
37848;BME280;23688;33.130;-117.188;2024-02-23T11:06:55;99803.50;;;10.99;100.00
37848;BME280;23688;33.130;-117.188;2024-02-23T11:09:31;99804.47;;;11.01;100.00
37848;BME280;23688;33.130;-117.188;2024-02-23T11:11:58;99791.34;;;10.98;100.00
37848;BME280;23688;33.130;-117.188;2024-02-23T11:14:51;99796.75;;;11.03;100.00
37848;BME280;23688;33.130;-117.188;2024-02-23T11:17:18;99781.97;;;11.02;100.00
37848;BME280;23688;33.130;-117.188;2024-02-23T11:19:51;99784.56;;;11.02;100.00
37848;BME280;23688;33.130;-117.188;2024-02-23T11:22:31;99767.00;;;10.96;100.00
37848;BME280;23688;33.130;-117.188;2024-02-23T11:25:04;99774.03;;;10.99;100.00
37848;BME280;23688;33.130;-117.188;2024-02-23T11:27:37;99771.31;;;10.96;100.00
37848;BME280;23688;33.130;-117.188;2024-02-23T11:30:07;99769.72;;;10.99;100.00
37848;BME280;23688;33.130;-117.188;2024-02-23T11:32:40;99766.16;;;10.97;100.00
37848;BME280;23688;33.130;-117.188;2024-02-23T11:35:15;99770.47;;;10.97;100.00
37848;BME280;23688;33.130;-117.188;2024-02-23T11:37:55;99761.59;;;10.91;100.00
37848;BME280;23688;33.130;-117.188;2024-02-23T11:40:33;99761.88;;;10.98;100.00
37848;BME280;23688;33.130;-117.188;2024-02-23T11:42:59;99754.66;;;10.90;100.00
37848;BME280;23688;33.130;-117.188;2024-02-23T11:45:30;99761.81;;;10.96;100.00
37848;BME280;23688;33.130;-117.188;2024-02-23T11:47:56;99756.47;;;10.93;100.00
37848;BME280;23688;33.130;-117.188;2024-02-23T11:50:23;99766.03;;;10.94;100.00
37848;BME280;23688;33.130;-117.188;2024-02-23T11:52:49;99760.72;;;10.91;100.00
37848;BME280;23688;33.130;-117.188;2024-02-23T11:55:20;99754.34;;;10.84;100.00
37848;BME280;23688;33.130;-117.188;2024-02-23T11:57:48;99764.88;;;10.87;100.00
37848;BME280;23688;33.130;-117.188;2024-02-23T12:00:15;99757.78;;;10.83;100.00
37848;BME280;23688;33.130;-117.188;2024-02-23T12:02:42;99756.81;;;10.81;100.00
37848;BME280;23688;33.130;-117.188;2024-02-23T12:05:09;99753.91;;;10.74;100.00
37848;BME280;23688;33.130;-117.188;2024-02-23T12:07:35;99754.84;;;10.76;100.00
37848;BME280;23688;33.130;-117.188;2024-02-23T12:10:02;99762.56;;;10.74;100.00
37848;BME280;23688;33.130;-117.188;2024-02-23T12:12:30;99759.88;;;10.73;100.00
37848;BME280;23688;33.130;-117.188;2024-02-23T12:14:56;99760.72;;;10.71;100.00
37848;BME280;23688;33.130;-117.188;2024-02-23T12:17:25;99753.75;;;10.70;100.00
37848;BME280;23688;33.130;-117.188;2024-02-23T12:20:02;99766.94;;;10.75;100.00